sensor_id;sensor_type;location;lat;lon;timestamp;P1;durP1;ratioP1;P2;durP2;ratioP2
82230;SDS011;71832;45.138;9.816;2023-09-07T00:00:58;26.95;;;16.10;;
82230;SDS011;71832;45.138;9.816;2023-09-07T00:03:27;26.75;;;15.23;;
82230;SDS011;71832;45.138;9.816;2023-09-07T00:05:55;32.45;;;17.08;;
82230;SDS011;71832;45.138;9.816;2023-09-07T00:08:23;27.35;;;17.50;;
82230;SDS011;71832;45.138;9.816;2023-09-07T00:10:52;29.00;;;16.58;;
82230;SDS011;71832;45.138;9.816;2023-09-07T00:13:20;26.83;;;17.15;;
82230;SDS011;71832;45.138;9.816;2023-09-07T00:15:49;30.27;;;16.77;;
82230;SDS011;71832;45.138;9.816;2023-09-07T00:18:18;27.35;;;17.38;;
82230;SDS011;71832;45.138;9.816;2023-09-07T00:20:47;32.13;;;18.75;;
82230;SDS011;71832;45.138;9.816;2023-09-07T00:23:15;27.63;;;18.83;;
82230;SDS011;71832;45.138;9.816;2023-09-07T00:25:43;28.92;;;18.58;;
82230;SDS011;71832;45.138;9.816;2023-09-07T00:28:12;31.08;;;18.02;;
82230;SDS011;71832;45.138;9.816;2023-09-07T00:30:41;29.90;;;19.25;;
82230;SDS011;71832;45.138;9.816;2023-09-07T00:33:10;29.58;;;19.13;;
82230;SDS011;71832;45.138;9.816;2023-09-07T00:35:38;31.10;;;18.98;;
82230;SDS011;71832;45.138;9.816;2023-09-07T00:38:06;30.15;;;18.48;;
82230;SDS011;71832;45.138;9.816;2023-09-07T00:40:34;29.13;;;17.20;;
82230;SDS011;71832;45.138;9.816;2023-09-07T00:43:03;23.40;;;16.33;;
82230;SDS011;71832;45.138;9.816;2023-09-07T00:45:32;26.08;;;16.77;;
82230;SDS011;71832;45.138;9.816;2023-09-07T00:48:00;24.52;;;16.35;;
82230;SDS011;71832;45.138;9.816;2023-09-07T00:50:28;27.20;;;15.65;;
82230;SDS011;71832;45.138;9.816;2023-09-07T00:52:56;25.65;;;16.90;;
82230;SDS011;71832;45.138;9.816;2023-09-07T00:55:25;27.13;;;16.38;;
82230;SDS011;71832;45.138;9.816;2023-09-07T00:57:58;26.45;;;15.00;;
82230;SDS011;71832;45.138;9.816;2023-09-07T01:00:26;26.48;;;15.73;;
82230;SDS011;71832;45.138;9.816;2023-09-07T01:02:54;30.85;;;16.42;;
82230;SDS011;71832;45.138;9.816;2023-09-07T01:05:24;25.08;;;15.80;;
82230;SDS011;71832;45.138;9.816;2023-09-07T01:08:03;24.92;;;15.63;;
82230;SDS011;71832;45.138;9.816;2023-09-07T01:10:38;25.52;;;15.90;;
82230;SDS011;71832;45.138;9.816;2023-09-07T01:13:07;22.73;;;15.38;;
82230;SDS011;71832;45.138;9.816;2023-09-07T01:15:36;23.17;;;15.05;;
82230;SDS011;71832;45.138;9.816;2023-09-07T01:18:05;23.48;;;14.90;;
82230;SDS011;71832;45.138;9.816;2023-09-07T01:20:35;22.63;;;14.65;;
82230;SDS011;71832;45.138;9.816;2023-09-07T01:23:05;22.92;;;14.00;;
82230;SDS011;71832;45.138;9.816;2023-09-07T01:25:35;24.05;;;14.90;;
82230;SDS011;71832;45.138;9.816;2023-09-07T01:28:04;24.27;;;15.40;;
82230;SDS011;71832;45.138;9.816;2023-09-07T01:30:34;24.17;;;15.15;;
82230;SDS011;71832;45.138;9.816;2023-09-07T01:33:04;26.75;;;16.05;;
82230;SDS011;71832;45.138;9.816;2023-09-07T01:35:32;27.33;;;15.18;;
82230;SDS011;71832;45.138;9.816;2023-09-07T01:38:02;22.65;;;13.57;;
82230;SDS011;71832;45.138;9.816;2023-09-07T01:40:30;24.50;;;13.80;;
82230;SDS011;71832;45.138;9.816;2023-09-07T01:42:59;21.58;;;14.13;;
82230;SDS011;71832;45.138;9.816;2023-09-07T01:45:28;24.38;;;15.25;;
82230;SDS011;71832;45.138;9.816;2023-09-07T01:47:57;22.70;;;15.40;;
82230;SDS011;71832;45.138;9.816;2023-09-07T01:50:26;20.73;;;13.70;;
82230;SDS011;71832;45.138;9.816;2023-09-07T01:52:55;24.17;;;14.27;;
82230;SDS011;71832;45.138;9.816;2023-09-07T01:55:24;22.13;;;14.30;;
82230;SDS011;71832;45.138;9.816;2023-09-07T01:57:54;25.85;;;15.45;;
82230;SDS011;71832;45.138;9.816;2023-09-07T02:00:22;31.88;;;17.35;;
82230;SDS011;71832;45.138;9.816;2023-09-07T02:02:51;30.90;;;17.48;;
82230;SDS011;71832;45.138;9.816;2023-09-07T02:05:19;26.05;;;16.88;;
82230;SDS011;71832;45.138;9.816;2023-09-07T02:07:48;31.95;;;17.58;;
82230;SDS011;71832;45.138;9.816;2023-09-07T02:10:17;28.70;;;17.75;;
82230;SDS011;71832;45.138;9.816;2023-09-07T02:12:46;29.63;;;17.73;;
82230;SDS011;71832;45.138;9.816;2023-09-07T02:15:15;33.08;;;19.35;;
82230;SDS011;71832;45.138;9.816;2023-09-07T02:17:43;30.33;;;17.58;;
82230;SDS011;71832;45.138;9.816;2023-09-07T02:20:12;29.05;;;17.95;;
82230;SDS011;71832;45.138;9.816;2023-09-07T02:22:41;26.83;;;17.13;;
82230;SDS011;71832;45.138;9.816;2023-09-07T02:25:09;30.23;;;16.98;;
82230;SDS011;71832;45.138;9.816;2023-09-07T02:27:38;32.67;;;19.77;;
82230;SDS011;71832;45.138;9.816;2023-09-07T02:30:07;28.65;;;17.20;;
82230;SDS011;71832;45.138;9.816;2023-09-07T02:32:35;30.00;;;18.00;;
82230;SDS011;71832;45.138;9.816;2023-09-07T02:35:03;27.00;;;17.35;;
82230;SDS011;71832;45.138;9.816;2023-09-07T02:37:32;27.63;;;17.98;;
82230;SDS011;71832;45.138;9.816;2023-09-07T02:40:03;27.58;;;17.65;;
82230;SDS011;71832;45.138;9.816;2023-09-07T02:42:33;32.15;;;17.15;;
82230;SDS011;71832;45.138;9.816;2023-09-07T02:45:03;28.35;;;17.77;;
82230;SDS011;71832;45.138;9.816;2023-09-07T02:47:32;33.33;;;17.90;;
82230;SDS011;71832;45.138;9.816;2023-09-07T02:50:00;26.55;;;15.55;;
82230;SDS011;71832;45.138;9.816;2023-09-07T02:52:28;25.83;;;15.45;;
82230;SDS011;71832;45.138;9.816;2023-09-07T02:54:57;29.02;;;16.23;;
82230;SDS011;71832;45.138;9.816;2023-09-07T02:57:26;28.73;;;16.90;;
82230;SDS011;71832;45.138;9.816;2023-09-07T02:59:54;34.50;;;19.50;;
82230;SDS011;71832;45.138;9.816;2023-09-07T03:02:23;33.08;;;21.48;;
82230;SDS011;71832;45.138;9.816;2023-09-07T03:04:56;36.20;;;21.67;;
82230;SDS011;71832;45.138;9.816;2023-09-07T03:07:25;43.92;;;26.20;;
82230;SDS011;71832;45.138;9.816;2023-09-07T03:09:53;34.30;;;21.02;;
82230;SDS011;71832;45.138;9.816;2023-09-07T03:12:22;38.95;;;22.35;;
82230;SDS011;71832;45.138;9.816;2023-09-07T03:14:51;32.65;;;20.92;;
82230;SDS011;71832;45.138;9.816;2023-09-07T03:17:19;33.20;;;17.35;;
82230;SDS011;71832;45.138;9.816;2023-09-07T03:19:47;32.70;;;17.77;;
82230;SDS011;71832;45.138;9.816;2023-09-07T03:22:15;32.78;;;19.20;;
82230;SDS011;71832;45.138;9.816;2023-09-07T03:24:44;35.00;;;19.55;;
82230;SDS011;71832;45.138;9.816;2023-09-07T03:27:13;32.13;;;19.25;;
82230;SDS011;71832;45.138;9.816;2023-09-07T03:29:41;35.42;;;20.38;;
82230;SDS011;71832;45.138;9.816;2023-09-07T03:32:11;37.05;;;21.52;;
82230;SDS011;71832;45.138;9.816;2023-09-07T03:34:38;38.38;;;21.45;;
82230;SDS011;71832;45.138;9.816;2023-09-07T03:37:07;35.70;;;22.58;;
82230;SDS011;71832;45.138;9.816;2023-09-07T03:39:37;32.40;;;19.48;;
82230;SDS011;71832;45.138;9.816;2023-09-07T03:42:06;33.50;;;18.60;;
82230;SDS011;71832;45.138;9.816;2023-09-07T03:44:35;40.45;;;24.02;;
82230;SDS011;71832;45.138;9.816;2023-09-07T03:47:05;38.05;;;23.33;;
82230;SDS011;71832;45.138;9.816;2023-09-07T03:49:34;38.50;;;23.35;;
82230;SDS011;71832;45.138;9.816;2023-09-07T03:52:04;42.28;;;24.45;;
82230;SDS011;71832;45.138;9.816;2023-09-07T03:54:33;41.00;;;25.17;;
82230;SDS011;71832;45.138;9.816;2023-09-07T03:57:01;39.58;;;23.15;;
82230;SDS011;71832;45.138;9.816;2023-09-07T03:59:30;36.88;;;22.20;;
82230;SDS011;71832;45.138;9.816;2023-09-07T04:01:59;40.17;;;24.33;;
82230;SDS011;71832;45.138;9.816;2023-09-07T04:04:28;43.33;;;23.80;;
82230;SDS011;71832;45.138;9.816;2023-09-07T04:06:56;35.10;;;21.17;;
82230;SDS011;71832;45.138;9.816;2023-09-07T04:09:25;34.70;;;21.52;;
82230;SDS011;71832;45.138;9.816;2023-09-07T04:11:54;33.58;;;19.50;;
82230;SDS011;71832;45.138;9.816;2023-09-07T04:14:22;32.25;;;19.35;;
82230;SDS011;71832;45.138;9.816;2023-09-07T04:16:51;32.58;;;19.67;;
82230;SDS011;71832;45.138;9.816;2023-09-07T04:19:19;28.25;;;18.75;;
82230;SDS011;71832;45.138;9.816;2023-09-07T04:21:48;31.67;;;19.35;;
82230;SDS011;71832;45.138;9.816;2023-09-07T04:24:17;30.20;;;17.60;;
82230;SDS011;71832;45.138;9.816;2023-09-07T04:26:47;28.63;;;17.75;;
82230;SDS011;71832;45.138;9.816;2023-09-07T04:29:16;36.88;;;18.25;;
82230;SDS011;71832;45.138;9.816;2023-09-07T04:31:44;29.63;;;19.17;;
82230;SDS011;71832;45.138;9.816;2023-09-07T04:34:13;27.92;;;17.85;;
82230;SDS011;71832;45.138;9.816;2023-09-07T04:36:41;28.80;;;17.90;;
82230;SDS011;71832;45.138;9.816;2023-09-07T04:39:10;31.30;;;19.17;;
82230;SDS011;71832;45.138;9.816;2023-09-07T04:41:40;30.17;;;18.27;;
82230;SDS011;71832;45.138;9.816;2023-09-07T04:44:08;27.40;;;17.77;;
82230;SDS011;71832;45.138;9.816;2023-09-07T04:46:37;28.05;;;17.17;;
82230;SDS011;71832;45.138;9.816;2023-09-07T04:49:07;26.00;;;17.27;;
82230;SDS011;71832;45.138;9.816;2023-09-07T04:51:36;28.67;;;17.52;;
82230;SDS011;71832;45.138;9.816;2023-09-07T04:54:04;31.48;;;17.52;;
82230;SDS011;71832;45.138;9.816;2023-09-07T04:56:33;32.00;;;18.20;;
82230;SDS011;71832;45.138;9.816;2023-09-07T04:59:01;25.42;;;16.77;;
82230;SDS011;71832;45.138;9.816;2023-09-07T05:01:29;26.83;;;16.50;;
82230;SDS011;71832;45.138;9.816;2023-09-07T05:03:57;28.70;;;16.65;;
82230;SDS011;71832;45.138;9.816;2023-09-07T05:06:27;24.63;;;16.33;;
82230;SDS011;71832;45.138;9.816;2023-09-07T05:08:55;28.50;;;16.50;;
82230;SDS011;71832;45.138;9.816;2023-09-07T05:11:23;27.80;;;17.25;;
82230;SDS011;71832;45.138;9.816;2023-09-07T05:13:50;28.80;;;17.55;;
82230;SDS011;71832;45.138;9.816;2023-09-07T05:16:18;25.95;;;16.98;;
82230;SDS011;71832;45.138;9.816;2023-09-07T05:18:47;26.40;;;16.65;;
82230;SDS011;71832;45.138;9.816;2023-09-07T05:21:15;30.77;;;18.00;;
82230;SDS011;71832;45.138;9.816;2023-09-07T05:23:43;27.23;;;17.25;;
82230;SDS011;71832;45.138;9.816;2023-09-07T05:26:10;34.28;;;18.52;;
82230;SDS011;71832;45.138;9.816;2023-09-07T05:28:40;29.52;;;16.95;;
82230;SDS011;71832;45.138;9.816;2023-09-07T05:31:08;32.58;;;18.92;;
82230;SDS011;71832;45.138;9.816;2023-09-07T05:33:36;27.63;;;16.65;;
82230;SDS011;71832;45.138;9.816;2023-09-07T05:36:03;27.80;;;16.75;;
82230;SDS011;71832;45.138;9.816;2023-09-07T05:38:32;28.88;;;17.23;;
82230;SDS011;71832;45.138;9.816;2023-09-07T05:40:59;31.25;;;18.48;;
82230;SDS011;71832;45.138;9.816;2023-09-07T05:43:27;31.02;;;17.75;;
82230;SDS011;71832;45.138;9.816;2023-09-07T05:45:55;33.33;;;16.88;;
82230;SDS011;71832;45.138;9.816;2023-09-07T05:48:22;28.50;;;17.17;;
82230;SDS011;71832;45.138;9.816;2023-09-07T05:50:50;30.13;;;16.40;;
82230;SDS011;71832;45.138;9.816;2023-09-07T05:53:18;25.45;;;16.00;;
82230;SDS011;71832;45.138;9.816;2023-09-07T05:55:46;24.38;;;15.77;;
82230;SDS011;71832;45.138;9.816;2023-09-07T05:58:13;28.67;;;16.30;;
82230;SDS011;71832;45.138;9.816;2023-09-07T06:00:41;21.20;;;13.38;;
82230;SDS011;71832;45.138;9.816;2023-09-07T06:03:09;22.05;;;13.70;;
82230;SDS011;71832;45.138;9.816;2023-09-07T06:05:37;20.90;;;13.27;;
82230;SDS011;71832;45.138;9.816;2023-09-07T06:08:06;19.02;;;12.57;;
82230;SDS011;71832;45.138;9.816;2023-09-07T06:10:34;22.55;;;13.50;;
82230;SDS011;71832;45.138;9.816;2023-09-07T06:13:02;21.27;;;13.48;;
82230;SDS011;71832;45.138;9.816;2023-09-07T06:15:29;21.23;;;12.77;;
82230;SDS011;71832;45.138;9.816;2023-09-07T06:17:57;17.60;;;11.35;;
82230;SDS011;71832;45.138;9.816;2023-09-07T06:20:24;19.38;;;11.35;;
82230;SDS011;71832;45.138;9.816;2023-09-07T06:22:52;20.05;;;10.60;;
82230;SDS011;71832;45.138;9.816;2023-09-07T06:25:19;16.13;;;10.45;;
82230;SDS011;71832;45.138;9.816;2023-09-07T06:27:48;15.40;;;10.63;;
82230;SDS011;71832;45.138;9.816;2023-09-07T06:30:15;16.23;;;10.13;;
82230;SDS011;71832;45.138;9.816;2023-09-07T06:32:42;15.57;;;10.25;;
82230;SDS011;71832;45.138;9.816;2023-09-07T06:35:10;17.48;;;10.30;;
82230;SDS011;71832;45.138;9.816;2023-09-07T06:37:39;17.17;;;9.75;;
82230;SDS011;71832;45.138;9.816;2023-09-07T06:40:09;15.80;;;9.38;;
82230;SDS011;71832;45.138;9.816;2023-09-07T06:42:39;18.42;;;9.88;;
82230;SDS011;71832;45.138;9.816;2023-09-07T06:45:08;17.98;;;10.77;;
82230;SDS011;71832;45.138;9.816;2023-09-07T06:47:36;17.70;;;9.90;;
82230;SDS011;71832;45.138;9.816;2023-09-07T06:50:05;15.05;;;9.90;;
82230;SDS011;71832;45.138;9.816;2023-09-07T06:52:33;16.15;;;10.95;;
82230;SDS011;71832;45.138;9.816;2023-09-07T06:55:01;17.80;;;10.35;;
82230;SDS011;71832;45.138;9.816;2023-09-07T06:57:30;20.70;;;11.00;;
82230;SDS011;71832;45.138;9.816;2023-09-07T06:59:59;19.02;;;11.85;;
82230;SDS011;71832;45.138;9.816;2023-09-07T07:02:31;17.38;;;10.52;;
82230;SDS011;71832;45.138;9.816;2023-09-07T07:05:00;17.77;;;11.45;;
82230;SDS011;71832;45.138;9.816;2023-09-07T07:07:29;16.38;;;11.80;;
82230;SDS011;71832;45.138;9.816;2023-09-07T07:09:58;18.30;;;11.07;;
82230;SDS011;71832;45.138;9.816;2023-09-07T07:12:26;21.80;;;11.38;;
82230;SDS011;71832;45.138;9.816;2023-09-07T07:14:55;18.88;;;11.32;;
82230;SDS011;71832;45.138;9.816;2023-09-07T07:17:24;20.00;;;11.38;;
82230;SDS011;71832;45.138;9.816;2023-09-07T07:19:52;18.42;;;12.43;;
82230;SDS011;71832;45.138;9.816;2023-09-07T07:22:21;19.65;;;12.05;;
82230;SDS011;71832;45.138;9.816;2023-09-07T07:24:50;18.27;;;11.85;;
82230;SDS011;71832;45.138;9.816;2023-09-07T07:27:18;19.67;;;12.25;;
82230;SDS011;71832;45.138;9.816;2023-09-07T07:29:47;17.60;;;11.63;;
82230;SDS011;71832;45.138;9.816;2023-09-07T07:32:17;17.58;;;10.45;;
82230;SDS011;71832;45.138;9.816;2023-09-07T07:34:46;15.63;;;11.45;;
82230;SDS011;71832;45.138;9.816;2023-09-07T07:37:15;19.77;;;12.18;;
82230;SDS011;71832;45.138;9.816;2023-09-07T07:39:42;20.73;;;12.70;;
82230;SDS011;71832;45.138;9.816;2023-09-07T07:42:09;21.55;;;12.35;;
82230;SDS011;71832;45.138;9.816;2023-09-07T07:44:38;18.17;;;12.35;;
82230;SDS011;71832;45.138;9.816;2023-09-07T07:47:07;19.50;;;12.38;;
82230;SDS011;71832;45.138;9.816;2023-09-07T07:49:35;20.20;;;13.18;;
82230;SDS011;71832;45.138;9.816;2023-09-07T07:52:04;16.30;;;12.18;;
82230;SDS011;71832;45.138;9.816;2023-09-07T07:54:33;19.98;;;13.23;;
82230;SDS011;71832;45.138;9.816;2023-09-07T07:57:02;21.48;;;13.15;;
82230;SDS011;71832;45.138;9.816;2023-09-07T07:59:32;19.08;;;11.73;;
82230;SDS011;71832;45.138;9.816;2023-09-07T08:02:01;17.15;;;11.77;;
82230;SDS011;71832;45.138;9.816;2023-09-07T08:04:32;19.88;;;11.95;;
82230;SDS011;71832;45.138;9.816;2023-09-07T08:07:01;19.83;;;11.77;;
82230;SDS011;71832;45.138;9.816;2023-09-07T08:09:30;17.50;;;10.88;;
82230;SDS011;71832;45.138;9.816;2023-09-07T08:11:58;19.70;;;11.25;;
82230;SDS011;71832;45.138;9.816;2023-09-07T08:14:28;18.17;;;11.55;;
82230;SDS011;71832;45.138;9.816;2023-09-07T08:16:57;17.52;;;9.55;;
82230;SDS011;71832;45.138;9.816;2023-09-07T08:19:25;14.85;;;9.38;;
82230;SDS011;71832;45.138;9.816;2023-09-07T08:21:55;16.50;;;9.07;;
82230;SDS011;71832;45.138;9.816;2023-09-07T08:24:24;12.07;;;7.45;;
82230;SDS011;71832;45.138;9.816;2023-09-07T08:26:51;12.60;;;8.70;;
82230;SDS011;71832;45.138;9.816;2023-09-07T08:29:21;15.82;;;9.43;;
82230;SDS011;71832;45.138;9.816;2023-09-07T08:31:53;13.85;;;9.15;;
82230;SDS011;71832;45.138;9.816;2023-09-07T08:34:21;14.43;;;9.60;;
82230;SDS011;71832;45.138;9.816;2023-09-07T08:36:49;15.18;;;8.85;;
82230;SDS011;71832;45.138;9.816;2023-09-07T08:39:20;13.23;;;8.63;;
82230;SDS011;71832;45.138;9.816;2023-09-07T08:41:49;13.35;;;7.70;;
82230;SDS011;71832;45.138;9.816;2023-09-07T08:44:17;10.30;;;7.00;;
82230;SDS011;71832;45.138;9.816;2023-09-07T08:46:48;12.15;;;7.72;;
82230;SDS011;71832;45.138;9.816;2023-09-07T08:49:18;10.70;;;7.63;;
82230;SDS011;71832;45.138;9.816;2023-09-07T08:51:46;13.82;;;8.63;;
82230;SDS011;71832;45.138;9.816;2023-09-07T08:54:17;15.50;;;8.70;;
82230;SDS011;71832;45.138;9.816;2023-09-07T08:56:45;12.35;;;7.07;;
82230;SDS011;71832;45.138;9.816;2023-09-07T08:59:16;12.23;;;6.72;;
82230;SDS011;71832;45.138;9.816;2023-09-07T09:01:44;9.23;;;6.72;;
82230;SDS011;71832;45.138;9.816;2023-09-07T09:04:12;14.25;;;7.72;;
82230;SDS011;71832;45.138;9.816;2023-09-07T09:06:42;11.38;;;7.28;;
82230;SDS011;71832;45.138;9.816;2023-09-07T09:09:10;8.45;;;5.57;;
82230;SDS011;71832;45.138;9.816;2023-09-07T09:11:48;10.35;;;6.05;;
82230;SDS011;71832;45.138;9.816;2023-09-07T09:14:17;9.18;;;5.97;;
82230;SDS011;71832;45.138;9.816;2023-09-07T09:16:54;11.50;;;6.60;;
82230;SDS011;71832;45.138;9.816;2023-09-07T09:19:32;9.10;;;5.13;;
82230;SDS011;71832;45.138;9.816;2023-09-07T09:24:33;9.73;;;5.32;;
82230;SDS011;71832;45.138;9.816;2023-09-07T09:27:01;10.25;;;6.82;;
82230;SDS011;71832;45.138;9.816;2023-09-07T09:29:32;12.50;;;6.32;;
82230;SDS011;71832;45.138;9.816;2023-09-07T09:32:00;7.15;;;5.47;;
82230;SDS011;71832;45.138;9.816;2023-09-07T09:34:34;10.55;;;6.20;;
82230;SDS011;71832;45.138;9.816;2023-09-07T09:37:03;11.30;;;7.05;;
82230;SDS011;71832;45.138;9.816;2023-09-07T09:39:38;9.95;;;6.63;;
82230;SDS011;71832;45.138;9.816;2023-09-07T09:42:07;8.88;;;5.63;;
82230;SDS011;71832;45.138;9.816;2023-09-07T09:44:35;10.30;;;5.35;;
82230;SDS011;71832;45.138;9.816;2023-09-07T09:47:05;7.28;;;5.60;;
82230;SDS011;71832;45.138;9.816;2023-09-07T09:49:35;9.57;;;5.25;;
82230;SDS011;71832;45.138;9.816;2023-09-07T09:52:04;9.70;;;5.28;;
82230;SDS011;71832;45.138;9.816;2023-09-07T09:54:33;9.65;;;5.57;;
82230;SDS011;71832;45.138;9.816;2023-09-07T09:57:03;8.02;;;5.20;;
82230;SDS011;71832;45.138;9.816;2023-09-07T09:59:31;9.70;;;5.45;;
82230;SDS011;71832;45.138;9.816;2023-09-07T10:02:00;8.65;;;5.15;;
82230;SDS011;71832;45.138;9.816;2023-09-07T10:04:30;9.07;;;4.93;;
82230;SDS011;71832;45.138;9.816;2023-09-07T10:06:59;14.15;;;9.70;;
82230;SDS011;71832;45.138;9.816;2023-09-07T10:09:32;9.43;;;5.40;;
82230;SDS011;71832;45.138;9.816;2023-09-07T10:12:02;11.00;;;6.00;;
82230;SDS011;71832;45.138;9.816;2023-09-07T10:14:37;7.65;;;5.60;;
82230;SDS011;71832;45.138;9.816;2023-09-07T10:17:08;8.43;;;5.47;;
82230;SDS011;71832;45.138;9.816;2023-09-07T10:19:48;7.97;;;4.95;;
82230;SDS011;71832;45.138;9.816;2023-09-07T10:22:21;5.68;;;4.38;;
82230;SDS011;71832;45.138;9.816;2023-09-07T10:24:56;8.00;;;4.97;;
82230;SDS011;71832;45.138;9.816;2023-09-07T10:27:25;7.20;;;5.47;;
82230;SDS011;71832;45.138;9.816;2023-09-07T10:30:14;8.80;;;4.72;;
82230;SDS011;71832;45.138;9.816;2023-09-07T10:32:45;9.52;;;5.57;;
82230;SDS011;71832;45.138;9.816;2023-09-07T10:35:14;7.80;;;4.75;;
82230;SDS011;71832;45.138;9.816;2023-09-07T10:37:45;7.70;;;5.15;;
82230;SDS011;71832;45.138;9.816;2023-09-07T10:40:23;10.15;;;5.10;;
82230;SDS011;71832;45.138;9.816;2023-09-07T10:43:00;8.27;;;5.75;;
82230;SDS011;71832;45.138;9.816;2023-09-07T10:45:30;10.13;;;5.00;;
82230;SDS011;71832;45.138;9.816;2023-09-07T10:47:58;10.48;;;5.13;;
82230;SDS011;71832;45.138;9.816;2023-09-07T10:50:29;7.13;;;5.07;;
82230;SDS011;71832;45.138;9.816;2023-09-07T10:53:08;8.80;;;5.10;;
82230;SDS011;71832;45.138;9.816;2023-09-07T10:55:38;8.25;;;5.40;;
82230;SDS011;71832;45.138;9.816;2023-09-07T10:58:09;7.65;;;4.80;;
82230;SDS011;71832;45.138;9.816;2023-09-07T11:00:37;6.75;;;4.85;;
82230;SDS011;71832;45.138;9.816;2023-09-07T11:03:07;8.00;;;5.00;;
82230;SDS011;71832;45.138;9.816;2023-09-07T11:05:36;10.40;;;5.25;;
82230;SDS011;71832;45.138;9.816;2023-09-07T11:08:06;7.15;;;4.75;;
82230;SDS011;71832;45.138;9.816;2023-09-07T11:10:34;8.57;;;6.50;;
82230;SDS011;71832;45.138;9.816;2023-09-07T11:13:04;9.35;;;5.47;;
82230;SDS011;71832;45.138;9.816;2023-09-07T11:15:33;7.82;;;4.90;;
82230;SDS011;71832;45.138;9.816;2023-09-07T11:18:05;7.38;;;5.15;;
82230;SDS011;71832;45.138;9.816;2023-09-07T11:20:36;7.53;;;4.57;;
82230;SDS011;71832;45.138;9.816;2023-09-07T11:23:05;9.38;;;5.97;;
82230;SDS011;71832;45.138;9.816;2023-09-07T11:25:34;9.05;;;5.07;;
82230;SDS011;71832;45.138;9.816;2023-09-07T11:28:04;9.48;;;5.32;;
82230;SDS011;71832;45.138;9.816;2023-09-07T11:30:34;7.85;;;5.40;;
82230;SDS011;71832;45.138;9.816;2023-09-07T11:33:04;6.97;;;5.00;;
82230;SDS011;71832;45.138;9.816;2023-09-07T11:35:33;8.07;;;5.13;;
82230;SDS011;71832;45.138;9.816;2023-09-07T11:38:02;7.47;;;5.32;;
82230;SDS011;71832;45.138;9.816;2023-09-07T11:40:32;8.32;;;5.50;;
82230;SDS011;71832;45.138;9.816;2023-09-07T11:43:01;7.20;;;5.35;;
82230;SDS011;71832;45.138;9.816;2023-09-07T11:45:30;10.55;;;5.65;;
82230;SDS011;71832;45.138;9.816;2023-09-07T11:47:59;6.53;;;5.10;;
82230;SDS011;71832;45.138;9.816;2023-09-07T11:50:27;13.38;;;6.03;;
82230;SDS011;71832;45.138;9.816;2023-09-07T11:52:56;9.40;;;5.28;;
82230;SDS011;71832;45.138;9.816;2023-09-07T11:55:25;8.13;;;5.57;;
82230;SDS011;71832;45.138;9.816;2023-09-07T11:57:52;10.00;;;5.72;;
82230;SDS011;71832;45.138;9.816;2023-09-07T12:00:20;6.28;;;4.85;;
82230;SDS011;71832;45.138;9.816;2023-09-07T12:02:48;6.88;;;4.78;;
82230;SDS011;71832;45.138;9.816;2023-09-07T12:05:16;7.75;;;5.00;;
82230;SDS011;71832;45.138;9.816;2023-09-07T12:07:45;7.57;;;5.47;;
82230;SDS011;71832;45.138;9.816;2023-09-07T12:10:13;8.27;;;4.85;;
82230;SDS011;71832;45.138;9.816;2023-09-07T12:12:41;10.52;;;5.30;;
82230;SDS011;71832;45.138;9.816;2023-09-07T12:15:10;6.68;;;4.75;;
82230;SDS011;71832;45.138;9.816;2023-09-07T12:17:38;11.15;;;5.75;;
82230;SDS011;71832;45.138;9.816;2023-09-07T12:20:06;10.35;;;5.30;;
82230;SDS011;71832;45.138;9.816;2023-09-07T12:22:36;7.68;;;4.60;;
82230;SDS011;71832;45.138;9.816;2023-09-07T12:25:05;7.15;;;4.93;;
82230;SDS011;71832;45.138;9.816;2023-09-07T12:27:33;6.20;;;5.05;;
82230;SDS011;71832;45.138;9.816;2023-09-07T12:30:02;10.10;;;5.05;;
82230;SDS011;71832;45.138;9.816;2023-09-07T12:32:34;6.63;;;4.43;;
82230;SDS011;71832;45.138;9.816;2023-09-07T12:35:02;7.53;;;5.18;;
82230;SDS011;71832;45.138;9.816;2023-09-07T12:37:35;6.35;;;4.60;;
82230;SDS011;71832;45.138;9.816;2023-09-07T12:40:03;5.93;;;4.38;;
82230;SDS011;71832;45.138;9.816;2023-09-07T12:42:38;6.80;;;4.47;;
82230;SDS011;71832;45.138;9.816;2023-09-07T12:45:08;8.00;;;4.80;;
82230;SDS011;71832;45.138;9.816;2023-09-07T12:47:37;7.25;;;4.88;;
82230;SDS011;71832;45.138;9.816;2023-09-07T12:50:06;9.10;;;4.40;;
82230;SDS011;71832;45.138;9.816;2023-09-07T12:52:35;9.40;;;4.75;;
82230;SDS011;71832;45.138;9.816;2023-09-07T12:55:04;6.82;;;4.72;;
82230;SDS011;71832;45.138;9.816;2023-09-07T12:57:34;7.13;;;4.88;;
82230;SDS011;71832;45.138;9.816;2023-09-07T13:00:03;9.73;;;5.82;;
82230;SDS011;71832;45.138;9.816;2023-09-07T13:02:32;10.57;;;5.93;;
82230;SDS011;71832;45.138;9.816;2023-09-07T13:05:01;8.30;;;5.60;;
82230;SDS011;71832;45.138;9.816;2023-09-07T13:07:31;9.25;;;5.50;;
82230;SDS011;71832;45.138;9.816;2023-09-07T13:10:01;9.48;;;5.18;;
82230;SDS011;71832;45.138;9.816;2023-09-07T13:12:31;10.73;;;7.30;;
82230;SDS011;71832;45.138;9.816;2023-09-07T13:15:00;11.07;;;6.32;;
82230;SDS011;71832;45.138;9.816;2023-09-07T13:17:28;10.50;;;5.60;;
82230;SDS011;71832;45.138;9.816;2023-09-07T13:19:57;10.75;;;4.43;;
82230;SDS011;71832;45.138;9.816;2023-09-07T13:22:26;10.20;;;5.45;;
82230;SDS011;71832;45.138;9.816;2023-09-07T13:24:55;8.48;;;5.38;;
82230;SDS011;71832;45.138;9.816;2023-09-07T13:27:24;7.75;;;5.25;;
82230;SDS011;71832;45.138;9.816;2023-09-07T13:29:53;8.57;;;5.43;;
82230;SDS011;71832;45.138;9.816;2023-09-07T13:32:22;7.70;;;5.05;;
82230;SDS011;71832;45.138;9.816;2023-09-07T13:34:51;7.70;;;5.20;;
82230;SDS011;71832;45.138;9.816;2023-09-07T13:37:19;9.00;;;5.28;;
82230;SDS011;71832;45.138;9.816;2023-09-07T13:39:48;7.53;;;5.15;;
82230;SDS011;71832;45.138;9.816;2023-09-07T13:42:17;10.07;;;4.68;;
82230;SDS011;71832;45.138;9.816;2023-09-07T13:44:45;7.15;;;4.60;;
82230;SDS011;71832;45.138;9.816;2023-09-07T13:47:15;8.40;;;5.18;;
82230;SDS011;71832;45.138;9.816;2023-09-07T13:49:44;7.00;;;4.90;;
82230;SDS011;71832;45.138;9.816;2023-09-07T13:52:12;10.18;;;5.45;;
82230;SDS011;71832;45.138;9.816;2023-09-07T13:54:40;8.18;;;5.45;;
82230;SDS011;71832;45.138;9.816;2023-09-07T13:57:09;7.55;;;4.75;;
82230;SDS011;71832;45.138;9.816;2023-09-07T13:59:38;8.95;;;5.53;;
82230;SDS011;71832;45.138;9.816;2023-09-07T14:02:06;14.68;;;5.20;;
82230;SDS011;71832;45.138;9.816;2023-09-07T14:04:35;7.70;;;5.55;;
82230;SDS011;71832;45.138;9.816;2023-09-07T14:07:02;6.22;;;4.82;;
82230;SDS011;71832;45.138;9.816;2023-09-07T14:09:31;6.47;;;5.03;;
82230;SDS011;71832;45.138;9.816;2023-09-07T14:11:59;9.30;;;5.50;;
82230;SDS011;71832;45.138;9.816;2023-09-07T14:14:28;6.63;;;4.82;;
82230;SDS011;71832;45.138;9.816;2023-09-07T14:16:56;10.27;;;4.72;;
82230;SDS011;71832;45.138;9.816;2023-09-07T14:19:26;11.93;;;5.50;;
82230;SDS011;71832;45.138;9.816;2023-09-07T14:22:00;11.93;;;5.13;;
82230;SDS011;71832;45.138;9.816;2023-09-07T14:24:29;7.10;;;4.60;;
82230;SDS011;71832;45.138;9.816;2023-09-07T14:26:57;6.95;;;4.55;;
82230;SDS011;71832;45.138;9.816;2023-09-07T14:29:25;8.50;;;4.95;;
82230;SDS011;71832;45.138;9.816;2023-09-07T14:31:55;10.02;;;5.05;;
82230;SDS011;71832;45.138;9.816;2023-09-07T14:34:23;8.90;;;4.80;;
82230;SDS011;71832;45.138;9.816;2023-09-07T14:36:52;5.93;;;4.72;;
82230;SDS011;71832;45.138;9.816;2023-09-07T14:39:20;8.07;;;4.70;;
82230;SDS011;71832;45.138;9.816;2023-09-07T14:41:50;6.05;;;4.38;;
82230;SDS011;71832;45.138;9.816;2023-09-07T14:44:19;10.02;;;4.63;;